Time;durP1;ratioP1;P1;durP2;ratioP2;P2;SDS_P1;SDS_P2;PMS_P1;PMS_P2;Temp;Humidity;BMP_temperature;BMP_pressure;BME280_temperature;BME280_humidity;BME280_pressure;Samples;Min_cycle;Max_cycle;Signal;HPM_P1;HPM_P2
2023/08/02 00:02:13;;;;;;;26.67;24.40;;;15.30;95.20;;;;;;5074702;28;20253;-88
2023/08/02 00:04:39;;;;;;;26.23;24.42;;;15.40;95.20;;;;;;5075670;28;20598;-88
2023/08/02 00:07:04;;;;;;;26.70;24.80;;;15.40;95.20;;;;;;5075746;28;20736;-88
2023/08/02 00:09:31;;;;;;;27.10;25.00;;;15.40;95.10;;;;;;5075757;28;20172;-89
2023/08/02 00:11:57;;;;;;;27.00;24.98;;;15.40;95.00;;;;;;5074504;28;20175;-89
2023/08/02 00:14:22;;;;;;;30.00;27.33;;;15.40;94.90;;;;;;5075063;28;20199;-88
2023/08/02 00:16:48;;;;;;;29.17;26.58;;;15.30;94.90;;;;;;5075734;28;20190;-88
2023/08/02 00:19:14;;;;;;;29.02;27.00;;;15.40;95.00;;;;;;5075577;28;20671;-88
2023/08/02 00:21:39;;;;;;;27.88;25.58;;;15.40;94.90;;;;;;5075731;28;20195;-88
2023/08/02 00:24:05;;;;;;;28.93;26.70;;;15.40;95.00;;;;;;5075603;28;20199;-89
2023/08/02 00:26:30;;;;;;;42.33;39.58;;;15.40;95.10;;;;;;5074203;28;20171;-89
2023/08/02 00:28:56;;;;;;;38.33;35.40;;;15.40;95.30;;;;;;5074224;28;20262;-89
2023/08/02 00:31:21;;;;;;;39.47;36.97;;;15.40;95.50;;;;;;5074296;28;20264;-89
2023/08/02 00:33:47;;;;;;;22.90;21.35;;;15.30;95.60;;;;;;5075362;28;20266;-89
2023/08/02 00:36:12;;;;;;;25.15;23.33;;;15.30;95.60;;;;;;5073862;28;20647;-89
2023/08/02 00:38:38;;;;;;;42.67;39.42;;;15.30;95.70;;;;;;5073756;28;20203;-89
2023/08/02 00:41:04;;;;;;;40.38;37.75;;;15.30;95.70;;;;;;5075057;28;20177;-89
2023/08/02 00:43:36;;;;;;;43.60;40.40;;;15.30;95.80;;;;;;5073390;28;20187;-91
2023/08/02 00:46:05;;;;;;;24.83;22.85;;;15.30;95.90;;;;;;5074446;28;20171;-90
2023/08/02 00:48:32;;;;;;;25.48;23.48;;;15.30;96.00;;;;;;5075422;28;20540;-92
2023/08/02 00:50:57;;;;;;;26.95;24.30;;;15.30;96.00;;;;;;5074675;28;20193;-91
2023/08/02 00:53:23;;;;;;;26.15;23.85;;;15.30;96.10;;;;;;5073729;28;20296;-91
2023/08/02 00:55:49;;;;;;;24.30;22.45;;;15.30;96.10;;;;;;5074129;28;20560;-91
2023/08/02 00:58:15;;;;;;;25.25;23.48;;;15.30;96.10;;;;;;5073436;28;20195;-91
2023/08/02 01:00:40;;;;;;;28.15;25.55;;;15.30;96.20;;;;;;5073768;28;20178;-88
2023/08/02 01:03:06;;;;;;;26.10;24.05;;;15.30;96.20;;;;;;5073694;28;20193;-90
2023/08/02 01:05:36;;;;;;;27.10;24.83;;;15.30;96.20;;;;;;5073778;28;20579;-91
2023/08/02 01:08:07;;;;;;;27.52;25.52;;;15.30;96.20;;;;;;5074316;28;20616;-90
2023/08/02 01:10:39;;;;;;;27.67;25.15;;;15.30;96.20;;;;;;5073768;28;20179;-91
2023/08/02 01:13:05;;;;;;;28.13;26.05;;;15.30;96.20;;;;;;5073991;28;20179;-90
2023/08/02 01:15:33;;;;;;;27.80;25.60;;;15.30;96.20;;;;;;5075459;28;20578;-92
2023/08/02 01:17:59;;;;;;;28.63;26.80;;;15.30;96.10;;;;;;5075666;28;20203;-91
2023/08/02 01:20:24;;;;;;;30.50;27.95;;;15.20;96.10;;;;;;5074248;28;20171;-91
2023/08/02 01:22:50;;;;;;;29.98;27.52;;;15.30;96.10;;;;;;5075057;28;20282;-91
2023/08/02 01:25:15;;;;;;;28.98;26.60;;;15.30;96.10;;;;;;5073222;28;20203;-92
2023/08/02 01:27:46;;;;;;;29.15;26.95;;;15.30;96.10;;;;;;5073504;28;20183;-89
2023/08/02 01:30:14;;;;;;;29.08;26.80;;;15.30;96.10;;;;;;5074102;28;20189;-92
2023/08/02 01:32:40;;;;;;;28.08;25.73;;;15.30;96.20;;;;;;5077094;28;20186;-92
2023/08/02 01:35:07;;;;;;;27.85;25.40;;;15.20;96.20;;;;;;5075977;28;20195;-92
2023/08/02 01:37:35;;;;;;;28.13;25.80;;;15.30;96.30;;;;;;5075133;28;20203;-91
2023/08/02 01:40:01;;;;;;;29.45;27.30;;;15.30;96.20;;;;;;5076361;28;20184;-92
2023/08/02 01:42:27;;;;;;;28.58;26.38;;;15.30;96.20;;;;;;5076923;28;20182;-92
2023/08/02 01:44:52;;;;;;;29.17;26.75;;;15.30;96.30;;;;;;5078714;28;20565;-90
2023/08/02 01:47:18;;;;;;;30.77;28.05;;;15.20;96.20;;;;;;5077990;28;20669;-91
2023/08/02 01:49:43;;;;;;;30.15;27.55;;;15.20;96.30;;;;;;5077988;28;20203;-91
2023/08/02 01:52:09;;;;;;;31.08;28.48;;;15.30;96.30;;;;;;5076916;28;20198;-91
2023/08/02 01:54:35;;;;;;;31.77;29.23;;;15.20;96.20;;;;;;5075454;28;20191;-91
2023/08/02 01:57:01;;;;;;;31.65;29.20;;;15.20;96.20;;;;;;5073889;28;20179;-90
2023/08/02 01:59:26;;;;;;;32.45;30.17;;;15.20;96.20;;;;;;5075077;28;20572;-90
2023/08/02 02:01:52;;;;;;;32.80;30.45;;;15.20;96.20;;;;;;5072578;28;20214;-90
2023/08/02 02:04:17;;;;;;;32.35;30.00;;;15.20;96.20;;;;;;5074592;28;20569;-90
2023/08/02 02:06:43;;;;;;;32.45;30.38;;;15.20;96.20;;;;;;5072552;28;20643;-90
2023/08/02 02:09:08;;;;;;;31.20;29.00;;;15.20;96.20;;;;;;5074240;28;20183;-90
2023/08/02 02:11:34;;;;;;;33.10;30.90;;;15.20;96.30;;;;;;5072826;28;20265;-90
2023/08/02 02:13:59;;;;;;;33.58;31.08;;;15.20;96.20;;;;;;5072801;28;20277;-91
2023/08/02 02:16:25;;;;;;;35.30;32.67;;;15.20;96.30;;;;;;5074226;28;20179;-90
2023/08/02 02:18:50;;;;;;;36.45;33.35;;;15.30;96.30;;;;;;5072542;28;20198;-90
2023/08/02 02:21:16;;;;;;;34.42;32.10;;;15.30;96.30;;;;;;5072303;28;20187;-91
2023/08/02 02:23:41;;;;;;;35.83;32.95;;;15.30;96.30;;;;;;5072818;28;20197;-90
2023/08/02 02:26:08;;;;;;;34.17;31.95;;;15.30;96.30;;;;;;5072658;28;20682;-90
2023/08/02 02:28:33;;;;;;;34.83;32.55;;;15.20;96.30;;;;;;5073000;28;20242;-90
2023/08/02 02:30:59;;;;;;;34.80;32.50;;;15.20;96.30;;;;;;5072817;28;20258;-91
2023/08/02 02:33:24;;;;;;;35.13;32.65;;;15.20;96.30;;;;;;5072198;28;20583;-90
2023/08/02 02:35:50;;;;;;;36.20;33.42;;;15.20;96.30;;;;;;5072546;28;20617;-91
2023/08/02 02:38:15;;;;;;;35.85;33.10;;;15.20;96.30;;;;;;5073470;28;20207;-90
2023/08/02 02:40:42;;;;;;;38.10;35.35;;;15.20;96.20;;;;;;5073181;28;20171;-91
2023/08/02 02:43:07;;;;;;;37.00;34.00;;;15.20;96.20;;;;;;5072850;28;20202;-90
2023/08/02 02:45:33;;;;;;;37.38;35.17;;;15.20;96.20;;;;;;5072989;28;20210;-91
2023/08/02 02:47:58;;;;;;;36.95;34.75;;;15.20;96.20;;;;;;5072470;28;20562;-91
2023/08/02 02:50:24;;;;;;;37.95;35.63;;;15.20;96.20;;;;;;5072128;28;20252;-90
2023/08/02 02:52:49;;;;;;;39.38;36.88;;;15.20;96.20;;;;;;5072836;28;20183;-90
2023/08/02 02:55:15;;;;;;;40.85;38.15;;;15.20;96.20;;;;;;5072221;28;20206;-91
2023/08/02 02:57:40;;;;;;;39.70;37.20;;;15.30;96.20;;;;;;5073050;28;20244;-90
2023/08/02 03:00:08;;;;;;;41.45;38.55;;;15.20;96.20;;;;;;5071865;28;20179;-90
2023/08/02 03:02:33;;;;;;;39.53;36.92;;;15.20;96.20;;;;;;5072001;28;20200;-90
2023/08/02 03:04:59;;;;;;;37.10;34.90;;;15.20;96.20;;;;;;5072112;28;20230;-90
2023/08/02 03:07:25;;;;;;;40.67;37.75;;;15.30;96.20;;;;;;5072790;28;20182;-90
2023/08/02 03:09:50;;;;;;;38.58;36.10;;;15.30;96.20;;;;;;5072025;28;20546;-90
2023/08/02 03:12:16;;;;;;;38.65;36.35;;;15.30;96.20;;;;;;5071820;28;20175;-90
2023/08/02 03:14:41;;;;;;;39.95;36.92;;;15.20;96.20;;;;;;5071900;28;20187;-89
2023/08/02 03:17:07;;;;;;;41.42;38.58;;;15.30;96.20;;;;;;5071989;28;20179;-90
2023/08/02 03:19:32;;;;;;;40.97;38.17;;;15.20;96.20;;;;;;5071563;28;20167;-90
2023/08/02 03:21:58;;;;;;;41.97;39.10;;;15.20;96.20;;;;;;5074455;28;20199;-90
2023/08/02 03:24:23;;;;;;;63.10;58.88;;;15.20;96.20;;;;;;5076632;28;20191;-89
2023/08/02 03:26:49;;;;;;;65.15;61.00;;;15.30;96.20;;;;;;5076685;28;20218;-89
2023/08/02 03:29:14;;;;;;;65.65;61.85;;;15.20;96.20;;;;;;5076973;28;20175;-90
2023/08/02 03:31:40;;;;;;;39.50;37.03;;;15.20;96.20;;;;;;5075624;28;20220;-90
2023/08/02 03:34:06;;;;;;;39.85;37.45;;;15.20;96.20;;;;;;5075321;28;20199;-90
2023/08/02 03:36:31;;;;;;;60.15;56.45;;;15.20;96.20;;;;;;5075237;28;20245;-90
2023/08/02 03:38:57;;;;;;;58.97;55.28;;;15.20;96.20;;;;;;5076300;28;20276;-90
2023/08/02 03:41:22;;;;;;;58.60;54.70;;;15.30;96.20;;;;;;5075141;28;20203;-90
2023/08/02 03:43:48;;;;;;;36.20;33.83;;;15.30;96.20;;;;;;5076177;28;20273;-90
2023/08/02 03:46:13;;;;;;;36.85;34.55;;;15.30;96.20;;;;;;5075411;28;20175;-90
2023/08/02 03:48:39;;;;;;;37.88;35.45;;;15.30;96.30;;;;;;5075477;28;20197;-90
2023/08/02 03:51:04;;;;;;;29.35;27.63;;;15.30;96.30;;;;;;5078275;28;20266;-90
2023/08/02 03:53:31;;;;;;;38.83;36.33;;;15.20;96.20;;;;;;5075904;28;20265;-90
2023/08/02 03:55:56;;;;;;;38.20;36.00;;;15.30;96.20;;;;;;5078146;28;20294;-91
2023/08/02 03:58:22;;;;;;;38.40;36.10;;;15.30;96.20;;;;;;5076772;28;20199;-91
2023/08/02 04:00:47;;;;;;;37.53;35.17;;;15.20;96.30;;;;;;5075877;28;20197;-90
2023/08/02 04:03:13;;;;;;;37.90;35.25;;;15.30;96.30;;;;;;5075863;28;20232;-92
2023/08/02 04:05:39;;;;;;;38.53;36.22;;;15.30;96.30;;;;;;5076136;28;20191;-91
2023/08/02 04:08:05;;;;;;;39.30;37.00;;;15.30;96.30;;;;;;5076372;28;20183;-91
2023/08/02 04:10:34;;;;;;;40.75;38.35;;;15.20;96.20;;;;;;5075319;28;20717;-91
2023/08/02 04:12:59;;;;;;;42.50;39.80;;;15.20;96.30;;;;;;5075189;28;20182;-91
2023/08/02 04:15:25;;;;;;;44.30;41.20;;;15.20;96.20;;;;;;5076871;28;20195;-91
2023/08/02 04:17:50;;;;;;;44.40;41.30;;;15.20;96.30;;;;;;5074807;28;20199;-91
2023/08/02 04:20:16;;;;;;;41.28;38.63;;;15.20;96.30;;;;;;5075679;28;20178;-91
2023/08/02 04:22:41;;;;;;;40.80;38.13;;;15.20;96.40;;;;;;5075101;28;20282;-91
2023/08/02 04:25:07;;;;;;;37.92;35.05;;;15.20;96.40;;;;;;5075125;28;20187;-91
2023/08/02 04:27:33;;;;;;;40.33;37.38;;;15.20;96.40;;;;;;5075526;28;20180;-91
2023/08/02 04:29:58;;;;;;;42.60;39.33;;;15.20;96.40;;;;;;5077231;28;20220;-91
2023/08/02 04:32:25;;;;;;;41.50;38.53;;;15.20;96.50;;;;;;5076595;28;20180;-91
2023/08/02 04:34:50;;;;;;;40.90;37.60;;;15.20;96.50;;;;;;5074908;28;20203;-91
2023/08/02 04:37:16;;;;;;;40.50;37.53;;;15.20;96.50;;;;;;5076272;28;20301;-92
2023/08/02 04:39:41;;;;;;;41.80;39.03;;;15.20;96.50;;;;;;5075994;28;20179;-91
2023/08/02 04:42:07;;;;;;;39.38;36.17;;;15.20;96.50;;;;;;5075240;28;20229;-91
2023/08/02 04:44:32;;;;;;;40.00;37.15;;;15.20;96.60;;;;;;5075186;28;20198;-91
2023/08/02 04:46:58;;;;;;;40.45;37.47;;;15.20;96.50;;;;;;5074563;28;20175;-90
2023/08/02 04:49:23;;;;;;;38.10;35.38;;;15.20;96.60;;;;;;5074428;28;20175;-91
2023/08/02 04:51:49;;;;;;;41.28;38.10;;;15.20;96.60;;;;;;5074848;28;20712;-91
2023/08/02 04:54:14;;;;;;;42.63;39.28;;;15.20;96.50;;;;;;5074768;28;20225;-91
2023/08/02 04:56:40;;;;;;;44.10;40.90;;;15.20;96.50;;;;;;5074658;28;20650;-90
2023/08/02 04:59:05;;;;;;;46.13;43.13;;;15.20;96.50;;;;;;5074463;28;20206;-90
2023/08/02 05:01:32;;;;;;;47.22;43.85;;;15.20;96.40;;;;;;5074009;28;20175;-90
2023/08/02 05:03:57;;;;;;;44.13;41.10;;;15.20;96.30;;;;;;5075539;28;20187;-91
2023/08/02 05:06:23;;;;;;;45.10;41.58;;;15.20;96.30;;;;;;5075366;28;20526;-91
2023/08/02 05:08:48;;;;;;;43.83;40.58;;;15.20;96.30;;;;;;5073820;28;20225;-91
2023/08/02 05:11:14;;;;;;;44.88;41.47;;;15.20;96.30;;;;;;5075176;28;20198;-90
2023/08/02 05:13:39;;;;;;;43.40;40.55;;;15.30;96.30;;;;;;5074279;28;20180;-91
2023/08/02 05:16:12;;;;;;;44.75;41.45;;;15.30;96.30;;;;;;5074865;28;20163;-90
2023/08/02 05:18:37;;;;;;;43.65;40.53;;;15.20;96.30;;;;;;5075080;28;20264;-91
2023/08/02 05:21:10;;;;;;;44.30;41.33;;;15.30;96.20;;;;;;5073447;28;20662;-90
2023/08/02 05:23:36;;;;;;;45.45;42.25;;;15.20;96.20;;;;;;5073558;28;20635;-90
2023/08/02 05:26:06;;;;;;;47.20;43.50;;;15.20;96.20;;;;;;5073135;28;20197;-90
2023/08/02 05:28:31;;;;;;;47.47;43.92;;;15.30;96.20;;;;;;5073923;28;20175;-90
2023/08/02 05:30:57;;;;;;;47.50;44.20;;;15.30;96.10;;;;;;5073205;28;20665;-90
2023/08/02 05:33:22;;;;;;;49.58;45.83;;;15.40;96.10;;;;;;5072830;28;20190;-90
2023/08/02 05:35:48;;;;;;;51.30;47.75;;;15.40;96.00;;;;;;5073024;28;20244;-90
2023/08/02 05:38:13;;;;;;;52.47;48.08;;;15.40;96.00;;;;;;5072884;28;20206;-90
2023/08/02 05:40:39;;;;;;;52.63;48.90;;;15.40;96.00;;;;;;5072819;28;20217;-90
2023/08/02 05:43:06;;;;;;;70.85;66.30;;;15.40;95.90;;;;;;5074000;28;20179;-89
2023/08/02 05:45:31;;;;;;;76.18;71.03;;;15.40;95.90;;;;;;5073059;28;20230;-90
2023/08/02 05:47:58;;;;;;;78.10;73.07;;;15.50;95.90;;;;;;5073615;28;20179;-90
2023/08/02 05:50:23;;;;;;;56.30;52.30;;;15.50;95.80;;;;;;5072615;28;20179;-90
2023/08/02 05:52:49;;;;;;;58.42;54.47;;;15.60;95.70;;;;;;5072551;28;20182;-90
2023/08/02 05:55:15;;;;;;;81.90;76.50;;;15.70;95.70;;;;;;5073569;28;20198;-89
2023/08/02 05:57:40;;;;;;;81.63;76.00;;;15.50;95.50;;;;;;5073243;28;20565;-90
2023/08/02 06:00:08;;;;;;;62.35;57.90;;;15.60;95.50;;;;;;5072366;28;20167;-89
2023/08/02 06:02:33;;;;;;;59.00;54.45;;;15.70;95.50;;;;;;5072967;28;20175;-89
2023/08/02 06:04:59;;;;;;;57.90;53.80;;;15.70;95.50;;;;;;5072148;28;20198;-89
2023/08/02 06:07:24;;;;;;;56.85;52.95;;;15.90;95.60;;;;;;5072206;28;20180;-90
2023/08/02 06:09:50;;;;;;;56.63;52.95;;;15.90;95.50;;;;;;5073486;28;20178;-90
2023/08/02 06:12:16;;;;;;;53.17;49.42;;;16.00;95.40;;;;;;5073647;28;20205;-89
2023/08/02 06:14:41;;;;;;;57.17;53.17;;;16.10;95.40;;;;;;5073342;28;20226;-90
2023/08/02 06:17:07;;;;;;;55.42;51.85;;;16.20;95.40;;;;;;5072074;28;20232;-90
2023/08/02 06:19:32;;;;;;;58.08;53.88;;;16.20;95.30;;;;;;5073459;28;20191;-89
2023/08/02 06:21:58;;;;;;;60.55;56.22;;;16.20;95.40;;;;;;5073367;28;20196;-89
2023/08/02 06:24:23;;;;;;;64.35;59.65;;;16.20;95.20;;;;;;5072260;28;20199;-88
2023/08/02 06:26:49;;;;;;;64.15;59.72;;;16.10;95.00;;;;;;5073089;28;20175;-89
2023/08/02 06:29:14;;;;;;;62.40;57.90;;;16.10;94.90;;;;;;5072351;28;20178;-89
2023/08/02 06:31:40;;;;;;;65.20;60.63;;;16.10;94.70;;;;;;5072042;28;20183;-89
2023/08/02 06:34:06;;;;;;;63.15;58.55;;;16.20;94.70;;;;;;5071996;28;20241;-89
2023/08/02 06:36:32;;;;;;;63.72;58.92;;;16.30;94.70;;;;;;5072024;28;20262;-89
2023/08/02 06:38:58;;;;;;;67.55;63.15;;;16.30;94.50;;;;;;5071982;28;20286;-89
2023/08/02 06:41:23;;;;;;;65.22;60.42;;;16.20;94.20;;;;;;5073786;28;20167;-89
2023/08/02 06:43:50;;;;;;;67.07;62.85;;;16.30;94.10;;;;;;5071850;28;20191;-89
2023/08/02 06:46:15;;;;;;;68.55;63.53;;;16.30;94.10;;;;;;5071970;28;20718;-89
2023/08/02 06:48:41;;;;;;;68.10;63.38;;;16.30;94.20;;;;;;5073174;28;20262;-89
2023/08/02 06:51:13;;;;;;;66.20;61.80;;;16.50;94.30;;;;;;5072963;28;20206;-89
2023/08/02 06:53:39;;;;;;;67.50;62.50;;;16.60;94.20;;;;;;5071725;28;20649;-89
2023/08/02 06:56:15;;;;;;;73.20;68.38;;;16.60;94.00;;;;;;5073200;28;20258;-89
2023/08/02 06:58:41;;;;;;;77.82;72.28;;;16.40;93.50;;;;;;5076983;28;20289;-89
2023/08/02 07:01:12;;;;;;;74.30;69.18;;;16.30;93.60;;;;;;5075685;28;20629;-89
2023/08/02 07:03:38;;;;;;;75.32;70.07;;;16.60;94.00;;;;;;5075919;28;20220;-89
2023/08/02 07:06:14;;;;;;;80.10;74.18;;;16.90;94.10;;;;;;5076704;28;20171;-89
2023/08/02 07:08:41;;;;;;;81.32;75.38;;;16.90;93.30;;;;;;5075966;28;20187;-87
2023/08/02 07:11:07;;;;;;;78.17;72.17;;;16.90;93.00;;;;;;5075713;28;20180;-88
2023/08/02 07:13:36;;;;;;;85.65;79.22;;;17.00;92.80;;;;;;5077046;28;20167;-90
2023/08/02 07:16:02;;;;;;;84.10;77.60;;;17.00;92.50;;;;;;5076731;28;20175;-89
2023/08/02 07:18:27;;;;;;;82.10;75.32;;;16.80;92.00;;;;;;5075512;28;20289;-88
2023/08/02 07:20:53;;;;;;;77.40;71.90;;;17.00;91.80;;;;;;5075482;28;20259;-88
2023/08/02 07:23:18;;;;;;;77.38;71.95;;;17.00;91.30;;;;;;5075433;28;20171;-89
2023/08/02 07:25:45;;;;;;;76.75;70.28;;;16.90;91.10;;;;;;5075253;28;20191;-88
2023/08/02 07:28:10;;;;;;;74.20;68.90;;;17.00;91.00;;;;;;5075497;28;20275;-88
2023/08/02 07:30:36;;;;;;;72.80;67.90;;;16.90;90.40;;;;;;5075187;28;20203;-88
2023/08/02 07:33:01;;;;;;;77.13;71.20;;;17.00;90.80;;;;;;5076469;28;20203;-88
2023/08/02 07:35:27;;;;;;;80.93;74.72;;;17.00;90.80;;;;;;5076436;28;20187;-88
2023/08/02 07:37:52;;;;;;;80.40;73.90;;;16.90;90.70;;;;;;5076361;28;20222;-89
2023/08/02 07:40:18;;;;;;;74.95;69.72;;;16.90;90.50;;;;;;5076364;28;20171;-87
2023/08/02 07:42:43;;;;;;;77.60;71.30;;;16.90;90.50;;;;;;5076152;28;20175;-88
2023/08/02 07:45:10;;;;;;;73.32;67.95;;;16.70;90.10;;;;;;5075419;28;20191;-88
2023/08/02 07:47:38;;;;;;;75.78;69.75;;;16.90;90.70;;;;;;5074991;28;20167;-88
2023/08/02 07:50:04;;;;;;;71.75;65.82;;;16.80;90.30;;;;;;5075016;28;20167;-88
2023/08/02 07:52:30;;;;;;;67.90;63.08;;;16.80;90.20;;;;;;5075147;28;20269;-88
2023/08/02 07:54:56;;;;;;;68.53;63.47;;;16.90;90.20;;;;;;5074794;28;20702;-88
2023/08/02 07:57:31;;;;;;;65.75;60.95;;;17.00;90.50;;;;;;5074778;28;20237;-88
2023/08/02 07:59:57;;;;;;;66.25;61.30;;;17.10;90.00;;;;;;5075651;28;20220;-88
2023/08/02 08:02:25;;;;;;;62.90;58.53;;;17.30;90.20;;;;;;5075960;28;20651;-88
2023/08/02 08:04:54;;;;;;;60.25;56.05;;;17.40;90.20;;;;;;5076134;28;20670;-88
2023/08/02 08:07:20;;;;;;;61.63;56.65;;;17.40;89.50;;;;;;5076136;28;20179;-88
2023/08/02 08:09:46;;;;;;;61.42;56.80;;;17.50;89.50;;;;;;5075836;28;20164;-88
2023/08/02 08:12:11;;;;;;;55.22;50.72;;;17.40;89.10;;;;;;5074540;28;20304;-87
2023/08/02 08:14:38;;;;;;;62.35;57.58;;;17.40;88.90;;;;;;5075863;28;20274;-88
2023/08/02 08:17:03;;;;;;;60.50;55.70;;;17.40;88.80;;;;;;5075940;28;20167;-87
2023/08/02 08:19:32;;;;;;;66.72;61.40;;;17.30;88.60;;;;;;5074333;28;20675;-87
2023/08/02 08:21:57;;;;;;;58.30;53.67;;;17.50;89.10;;;;;;5075616;28;20209;-88
2023/08/02 08:24:23;;;;;;;57.22;52.67;;;17.60;89.40;;;;;;5075601;28;20195;-87
2023/08/02 08:26:50;;;;;;;53.50;49.50;;;17.70;89.00;;;;;;5075798;28;20175;-88
2023/08/02 08:29:16;;;;;;;56.67;52.42;;;17.70;88.80;;;;;;5075902;28;20251;-88
2023/08/02 08:31:41;;;;;;;54.25;50.38;;;17.80;88.60;;;;;;5075811;28;20172;-88
2023/08/02 08:34:07;;;;;;;50.13;46.42;;;18.00;88.80;;;;;;5076039;28;20215;-88
2023/08/02 08:36:32;;;;;;;51.88;47.95;;;17.90;87.60;;;;;;5076005;28;20178;-88
2023/08/02 08:38:58;;;;;;;48.80;45.03;;;18.00;88.30;;;;;;5075112;28;20223;-88
2023/08/02 08:41:24;;;;;;;50.17;46.28;;;17.90;87.40;;;;;;5074759;28;20257;-88
2023/08/02 08:43:49;;;;;;;50.10;45.65;;;17.80;87.30;;;;;;5075708;28;20187;-87
2023/08/02 08:46:15;;;;;;;48.40;44.60;;;17.90;88.10;;;;;;5074654;28;20167;-88
2023/08/02 08:48:41;;;;;;;47.45;43.88;;;18.00;87.70;;;;;;5076191;28;20254;-87
2023/08/02 08:51:10;;;;;;;44.90;41.15;;;18.30;87.60;;;;;;5075947;28;20172;-88
2023/08/02 08:53:36;;;;;;;39.97;36.85;;;18.40;87.10;;;;;;5074240;28;20171;-87
2023/08/02 08:56:04;;;;;;;40.05;36.72;;;18.40;86.20;;;;;;5074265;28;20179;-88
2023/08/02 08:58:32;;;;;;;33.63;30.33;;;18.30;85.20;;;;;;5074780;28;20298;-88
2023/08/02 09:00:58;;;;;;;39.17;35.80;;;18.40;84.80;;;;;;5074114;28;20173;-88
2023/08/02 09:03:24;;;;;;;39.95;36.55;;;18.40;83.90;;;;;;5074220;28;20236;-88
2023/08/02 09:05:50;;;;;;;37.25;34.35;;;18.50;84.50;;;;;;5074964;28;20646;-87
2023/08/02 09:08:16;;;;;;;40.93;37.67;;;18.40;84.20;;;;;;5075024;28;20179;-88
2023/08/02 09:10:42;;;;;;;37.40;34.20;;;18.80;85.30;;;;;;5074225;28;20183;-88
2023/08/02 09:13:29;;;;;;;39.90;36.60;;;18.70;83.40;;;;;;5075152;28;20180;-88
2023/08/02 09:16:03;;;;;;;38.35;34.50;;;18.80;84.30;;;;;;5075035;28;20541;-88
2023/08/02 09:18:40;;;;;;;40.13;36.10;;;18.90;84.40;;;;;;5074106;28;20198;-88
2023/08/02 09:21:08;;;;;;;37.67;34.40;;;18.70;83.30;;;;;;5073770;28;20187;-88
2023/08/02 09:23:33;;;;;;;36.45;33.30;;;18.60;82.80;;;;;;5074084;28;20195;-88
2023/08/02 09:26:19;;;;;;;52.13;47.72;;;18.60;83.20;;;;;;5075547;28;20188;-88
2023/08/02 09:29:01;;;;;;;53.45;49.15;;;18.50;83.70;;;;;;5075524;28;20170;-88
2023/08/02 09:31:29;;;;;;;36.75;33.25;;;18.50;83.30;;;;;;5073418;28;20164;-88
2023/08/02 09:33:55;;;;;;;36.72;33.58;;;18.30;83.40;;;;;;5073627;28;20198;-88
2023/08/02 09:36:29;;;;;;;32.90;30.00;;;18.30;83.10;;;;;;5074131;28;20182;-88
2023/08/02 09:38:55;;;;;;;54.78;50.38;;;18.30;83.50;;;;;;5074160;28;20557;-86
2023/08/02 09:41:25;;;;;;;58.83;54.53;;;18.50;84.20;;;;;;5072993;28;20197;-87
2023/08/02 09:43:51;;;;;;;34.03;31.13;;;18.70;84.80;;;;;;5072657;28;20276;-87
2023/08/02 09:46:30;;;;;;;37.03;33.45;;;18.80;84.90;;;;;;5072736;28;20171;-87
2023/08/02 09:48:59;;;;;;;36.22;32.80;;;18.70;84.60;;;;;;5072986;28;20178;-88
2023/08/02 09:51:42;;;;;;;34.97;32.17;;;18.80;84.50;;;;;;5074039;28;20178;-88
2023/08/02 09:54:08;;;;;;;34.40;31.48;;;18.90;84.30;;;;;;5072910;28;20286;-89
2023/08/02 09:56:36;;;;;;;33.88;30.83;;;19.10;84.40;;;;;;5073833;28;20175;-89
2023/08/02 09:59:03;;;;;;;35.40;31.95;;;19.10;84.10;;;;;;5072736;28;20203;-89
2023/08/02 10:01:29;;;;;;;35.20;32.25;;;19.10;83.80;;;;;;5072442;28;20666;-89
2023/08/02 10:03:58;;;;;;;32.10;29.40;;;19.00;82.90;;;;;;5072792;28;20198;-89
2023/08/02 10:06:49;;;;;;;35.70;32.45;;;19.10;83.30;;;;;;5073444;28;20516;-89
2023/08/02 10:09:19;;;;;;;35.90;32.22;;;19.00;83.60;;;;;;5064270;28;20222;-89
2023/08/02 10:11:56;;;;;;;33.00;30.25;;;19.00;83.20;;;;;;5073738;28;20583;-89
2023/08/02 10:14:22;;;;;;;31.67;29.00;;;18.90;82.70;;;;;;5072255;28;20195;-88
2023/08/02 10:16:48;;;;;;;32.90;29.90;;;18.80;82.20;;;;;;5073019;28;20175;-88
2023/08/02 10:19:14;;;;;;;30.45;27.65;;;18.70;81.20;;;;;;5072484;28;20199;-88
2023/08/02 10:21:41;;;;;;;32.80;29.88;;;18.60;81.60;;;;;;5072461;28;20195;-89
2023/08/02 10:24:07;;;;;;;34.47;31.42;;;18.40;81.90;;;;;;5073492;28;20190;-89
2023/08/02 10:26:33;;;;;;;33.50;30.83;;;18.30;82.40;;;;;;5073793;28;20213;-88
2023/08/02 10:29:01;;;;;;;30.88;28.45;;;18.30;82.70;;;;;;5072571;28;20167;-88
2023/08/02 10:31:27;;;;;;;31.23;28.13;;;18.40;82.90;;;;;;5074069;28;20172;-86
2023/08/02 10:33:52;;;;;;;29.73;27.02;;;18.50;82.90;;;;;;5071044;28;20422;-87
2023/08/02 10:36:18;;;;;;;29.65;27.23;;;18.60;82.40;;;;;;5074041;28;20177;-90
2023/08/02 10:38:47;;;;;;;30.40;27.98;;;18.70;82.40;;;;;;5073267;28;20204;-90
2023/08/02 10:41:17;;;;;;;30.90;27.50;;;18.70;82.60;;;;;;5073326;28;20224;-89
2023/08/02 10:43:55;;;;;;;29.65;26.95;;;18.70;82.30;;;;;;5072110;28;20171;-89
2023/08/02 10:46:32;;;;;;;29.58;27.00;;;18.70;82.00;;;;;;5073178;28;20171;-89
2023/08/02 10:49:09;;;;;;;29.30;26.80;;;18.80;82.70;;;;;;5073527;28;20618;-89
2023/08/02 10:51:39;;;;;;;30.42;27.88;;;18.80;82.30;;;;;;5071721;28;20179;-90
2023/08/02 10:54:21;;;;;;;30.95;28.13;;;18.80;82.30;;;;;;5071727;28;20575;-90
2023/08/02 10:56:54;;;;;;;29.98;27.58;;;18.80;82.70;;;;;;5072699;28;20535;-89
2023/08/02 10:59:23;;;;;;;28.60;25.90;;;18.80;82.50;;;;;;5072762;28;20203;-89
2023/08/02 11:02:01;;;;;;;28.15;26.02;;;18.80;81.90;;;;;;5071746;28;20171;-89
2023/08/02 11:04:29;;;;;;;28.05;25.60;;;18.80;80.70;;;;;;5073152;28;20190;-89
2023/08/02 11:06:55;;;;;;;27.73;25.20;;;18.70;79.90;;;;;;5071712;28;20651;-89
2023/08/02 11:09:30;;;;;;;29.52;26.88;;;18.70;79.80;;;;;;5073067;28;20186;-88
2023/08/02 11:11:56;;;;;;;30.47;27.97;;;18.70;80.10;;;;;;5071448;28;20430;-90
2023/08/02 11:14:28;;;;;;;31.08;28.65;;;18.70;80.10;;;;;;5071644;28;20199;-89
2023/08/02 11:16:54;;;;;;;30.25;28.08;;;18.70;80.80;;;;;;5073171;28;20205;-89
2023/08/02 11:19:21;;;;;;;30.27;27.63;;;18.70;81.00;;;;;;5072762;28;20200;-90
2023/08/02 11:21:59;;;;;;;30.45;27.70;;;18.60;81.40;;;;;;5072681;28;20176;-90
2023/08/02 11:24:25;;;;;;;29.52;27.25;;;18.70;81.90;;;;;;5072739;28;20605;-90
2023/08/02 11:26:58;;;;;;;30.10;27.63;;;18.70;82.50;;;;;;5072762;28;20177;-89
2023/08/02 11:29:25;;;;;;;29.90;27.33;;;18.70;82.60;;;;;;5073028;28;20530;-90
2023/08/02 11:31:54;;;;;;;30.92;28.15;;;18.80;83.10;;;;;;5073411;28;20646;-90
2023/08/02 11:34:20;;;;;;;30.73;28.17;;;18.70;83.30;;;;;;5072590;28;20690;-90
2023/08/02 11:36:48;;;;;;;30.92;28.42;;;18.70;84.00;;;;;;5072650;28;20171;-89
2023/08/02 11:39:18;;;;;;;33.38;30.50;;;18.70;84.40;;;;;;5071347;28;20199;-90
2023/08/02 11:41:44;;;;;;;34.97;32.03;;;18.60;85.00;;;;;;5073024;28;20160;-90
2023/08/02 11:44:16;;;;;;;36.15;33.05;;;18.60;85.90;;;;;;5075253;28;20252;-90
2023/08/02 11:46:42;;;;;;;34.95;32.40;;;18.60;86.50;;;;;;5075024;28;20266;-89
2023/08/02 11:49:08;;;;;;;35.50;32.58;;;18.60;86.80;;;;;;5076412;28;20259;-90
2023/08/02 11:51:39;;;;;;;37.00;34.03;;;18.60;87.00;;;;;;5076356;28;20175;-90
2023/08/02 11:54:05;;;;;;;39.28;36.25;;;18.50;87.40;;;;;;5076533;28;20191;-89
2023/08/02 11:56:31;;;;;;;38.78;35.90;;;18.60;88.20;;;;;;5076078;28;20556;-89
2023/08/02 11:58:57;;;;;;;40.35;36.80;;;18.60;88.60;;;;;;5074798;28;20229;-88
2023/08/02 12:01:22;;;;;;;42.78;39.03;;;18.50;88.70;;;;;;5075974;28;20178;-89
2023/08/02 12:03:56;;;;;;;40.40;37.28;;;18.50;89.10;;;;;;5075789;28;20270;-88
2023/08/02 12:06:21;;;;;;;41.13;38.33;;;18.30;89.20;;;;;;5075890;28;20186;-87
2023/08/02 12:08:58;;;;;;;41.60;38.40;;;18.30;89.50;;;;;;5075807;28;20551;-87
2023/08/02 12:11:24;;;;;;;40.63;37.75;;;18.20;89.60;;;;;;5074537;28;20228;-90
2023/08/02 12:13:50;;;;;;;40.87;37.40;;;18.10;89.70;;;;;;5075662;28;20198;-89
2023/08/02 12:16:16;;;;;;;39.67;36.63;;;18.00;90.00;;;;;;5075691;28;20217;-89
2023/08/02 12:19:09;;;;;;;41.80;38.90;;;18.00;90.00;;;;;;5074288;28;20223;-89
2023/08/02 12:21:35;;;;;;;38.53;35.63;;;17.90;90.10;;;;;;5072379;28;20229;-89
2023/08/02 12:24:15;;;;;;;56.22;52.33;;;17.90;90.20;;;;;;5074198;28;20204;-89
2023/08/02 12:26:40;;;;;;;56.00;52.42;;;18.00;90.20;;;;;;5075422;28;20167;-90
2023/08/02 12:29:06;;;;;;;56.08;51.92;;;18.00;90.30;;;;;;5074008;28;20700;-89